sensor_id;sensor_type;location;lat;lon;timestamp;temperature;humidity
17948;DHT22;9099;47.958;11.366;2023-12-04T00:02:04;-4.70;99.90
17948;DHT22;9099;47.958;11.366;2023-12-04T00:04:31;-4.70;99.90
17948;DHT22;9099;47.958;11.366;2023-12-04T00:06:58;-4.70;99.90
17948;DHT22;9099;47.958;11.366;2023-12-04T00:09:25;-4.80;99.90
17948;DHT22;9099;47.958;11.366;2023-12-04T00:11:52;-4.80;99.90
17948;DHT22;9099;47.958;11.366;2023-12-04T00:14:21;-4.80;99.90
17948;DHT22;9099;47.958;11.366;2023-12-04T00:16:47;-4.90;99.90
17948;DHT22;9099;47.958;11.366;2023-12-04T00:19:14;-4.90;99.90
17948;DHT22;9099;47.958;11.366;2023-12-04T00:21:41;-4.90;99.90
17948;DHT22;9099;47.958;11.366;2023-12-04T00:24:08;-4.90;99.90
17948;DHT22;9099;47.958;11.366;2023-12-04T00:26:35;-5.00;99.90
17948;DHT22;9099;47.958;11.366;2023-12-04T00:29:02;-5.00;99.90
17948;DHT22;9099;47.958;11.366;2023-12-04T00:31:30;-5.00;99.90
17948;DHT22;9099;47.958;11.366;2023-12-04T00:33:57;-5.00;99.90
17948;DHT22;9099;47.958;11.366;2023-12-04T00:36:24;-4.90;99.90
17948;DHT22;9099;47.958;11.366;2023-12-04T00:38:50;-4.90;99.90
17948;DHT22;9099;47.958;11.366;2023-12-04T00:41:17;-4.80;99.90
17948;DHT22;9099;47.958;11.366;2023-12-04T00:43:44;-4.80;99.90
17948;DHT22;9099;47.958;11.366;2023-12-04T00:46:11;-4.70;99.90
17948;DHT22;9099;47.958;11.366;2023-12-04T00:48:39;-4.70;99.90
17948;DHT22;9099;47.958;11.366;2023-12-04T00:51:06;-4.80;99.90
17948;DHT22;9099;47.958;11.366;2023-12-04T00:53:33;-4.80;99.90
17948;DHT22;9099;47.958;11.366;2023-12-04T00:56:00;-4.80;99.90
17948;DHT22;9099;47.958;11.366;2023-12-04T00:58:27;-4.70;99.90
17948;DHT22;9099;47.958;11.366;2023-12-04T01:00:54;-4.70;99.90
17948;DHT22;9099;47.958;11.366;2023-12-04T01:03:22;-4.70;99.90
17948;DHT22;9099;47.958;11.366;2023-12-04T01:05:53;-4.70;99.90
17948;DHT22;9099;47.958;11.366;2023-12-04T01:08:20;-4.60;99.90
17948;DHT22;9099;47.958;11.366;2023-12-04T01:10:46;-4.70;99.90
17948;DHT22;9099;47.958;11.366;2023-12-04T01:13:14;-4.60;99.90
17948;DHT22;9099;47.958;11.366;2023-12-04T01:15:40;-4.60;99.90
17948;DHT22;9099;47.958;11.366;2023-12-04T01:18:08;-4.60;99.90
17948;DHT22;9099;47.958;11.366;2023-12-04T01:20:35;-4.60;99.90
17948;DHT22;9099;47.958;11.366;2023-12-04T01:23:03;-4.60;99.90
17948;DHT22;9099;47.958;11.366;2023-12-04T01:25:30;-4.60;99.90
17948;DHT22;9099;47.958;11.366;2023-12-04T01:27:57;-4.60;99.90
17948;DHT22;9099;47.958;11.366;2023-12-04T01:30:23;-4.60;99.90
17948;DHT22;9099;47.958;11.366;2023-12-04T01:32:50;-4.60;99.90
17948;DHT22;9099;47.958;11.366;2023-12-04T01:35:17;-4.70;99.90
17948;DHT22;9099;47.958;11.366;2023-12-04T01:37:44;-4.60;99.90
17948;DHT22;9099;47.958;11.366;2023-12-04T01:40:13;-4.60;99.90
17948;DHT22;9099;47.958;11.366;2023-12-04T01:42:41;-4.60;99.90
17948;DHT22;9099;47.958;11.366;2023-12-04T01:45:09;-4.70;99.90
17948;DHT22;9099;47.958;11.366;2023-12-04T01:47:36;-4.70;99.90
17948;DHT22;9099;47.958;11.366;2023-12-04T01:50:03;-4.70;99.90
17948;DHT22;9099;47.958;11.366;2023-12-04T01:52:30;-4.70;99.90
17948;DHT22;9099;47.958;11.366;2023-12-04T01:54:57;-4.70;99.90
17948;DHT22;9099;47.958;11.366;2023-12-04T01:57:26;-4.80;99.90
17948;DHT22;9099;47.958;11.366;2023-12-04T01:59:52;-4.80;99.90
17948;DHT22;9099;47.958;11.366;2023-12-04T02:02:19;-4.80;99.90
17948;DHT22;9099;47.958;11.366;2023-12-04T02:04:46;-4.80;99.90
17948;DHT22;9099;47.958;11.366;2023-12-04T02:07:13;-4.80;99.90
17948;DHT22;9099;47.958;11.366;2023-12-04T02:09:40;-4.80;99.90
17948;DHT22;9099;47.958;11.366;2023-12-04T02:12:07;-4.70;99.90
17948;DHT22;9099;47.958;11.366;2023-12-04T02:14:36;-4.80;99.90
17948;DHT22;9099;47.958;11.366;2023-12-04T02:17:05;-4.70;99.90
17948;DHT22;9099;47.958;11.366;2023-12-04T02:19:32;-4.80;99.90
17948;DHT22;9099;47.958;11.366;2023-12-04T02:21:59;-4.80;99.90
17948;DHT22;9099;47.958;11.366;2023-12-04T02:24:27;-4.70;99.90
17948;DHT22;9099;47.958;11.366;2023-12-04T02:26:59;-4.80;99.90
17948;DHT22;9099;47.958;11.366;2023-12-04T02:29:31;-4.80;99.90
17948;DHT22;9099;47.958;11.366;2023-12-04T02:32:00;-4.90;99.90
17948;DHT22;9099;47.958;11.366;2023-12-04T02:34:29;-4.90;99.90
17948;DHT22;9099;47.958;11.366;2023-12-04T02:36:59;-4.90;99.90
17948;DHT22;9099;47.958;11.366;2023-12-04T02:39:29;-4.90;99.90
17948;DHT22;9099;47.958;11.366;2023-12-04T02:41:55;-4.90;99.90
17948;DHT22;9099;47.958;11.366;2023-12-04T02:44:22;-4.90;99.90
17948;DHT22;9099;47.958;11.366;2023-12-04T02:46:49;-5.00;99.90
17948;DHT22;9099;47.958;11.366;2023-12-04T02:49:16;-5.00;99.90
17948;DHT22;9099;47.958;11.366;2023-12-04T02:51:43;-4.90;99.90
17948;DHT22;9099;47.958;11.366;2023-12-04T02:54:09;-4.90;99.90
17948;DHT22;9099;47.958;11.366;2023-12-04T02:56:38;-4.80;99.90
17948;DHT22;9099;47.958;11.366;2023-12-04T02:59:04;-4.80;99.90
17948;DHT22;9099;47.958;11.366;2023-12-04T03:01:31;-4.80;99.90
17948;DHT22;9099;47.958;11.366;2023-12-04T03:03:58;-4.70;99.90
17948;DHT22;9099;47.958;11.366;2023-12-04T03:06:25;-4.70;99.90
17948;DHT22;9099;47.958;11.366;2023-12-04T03:08:52;-4.70;99.90
17948;DHT22;9099;47.958;11.366;2023-12-04T03:11:19;-4.80;99.90
17948;DHT22;9099;47.958;11.366;2023-12-04T03:13:47;-4.80;99.90
17948;DHT22;9099;47.958;11.366;2023-12-04T03:16:16;-4.80;99.90
17948;DHT22;9099;47.958;11.366;2023-12-04T03:18:43;-4.80;99.90
17948;DHT22;9099;47.958;11.366;2023-12-04T03:21:10;-4.80;99.90
17948;DHT22;9099;47.958;11.366;2023-12-04T03:23:37;-4.80;99.90
17948;DHT22;9099;47.958;11.366;2023-12-04T03:26:04;-4.80;99.90
17948;DHT22;9099;47.958;11.366;2023-12-04T03:28:31;-4.90;99.90
17948;DHT22;9099;47.958;11.366;2023-12-04T03:31:00;-4.90;99.90
17948;DHT22;9099;47.958;11.366;2023-12-04T03:33:26;-5.00;99.90
17948;DHT22;9099;47.958;11.366;2023-12-04T03:35:53;-5.00;99.90
17948;DHT22;9099;47.958;11.366;2023-12-04T03:38:20;-4.90;99.90
17948;DHT22;9099;47.958;11.366;2023-12-04T03:40:47;-5.00;99.90
17948;DHT22;9099;47.958;11.366;2023-12-04T03:43:14;-4.90;99.90
17948;DHT22;9099;47.958;11.366;2023-12-04T03:45:40;-4.90;99.90
17948;DHT22;9099;47.958;11.366;2023-12-04T03:48:08;-4.90;99.90
17948;DHT22;9099;47.958;11.366;2023-12-04T03:50:34;-4.80;99.90
17948;DHT22;9099;47.958;11.366;2023-12-04T03:53:01;-4.80;99.90
17948;DHT22;9099;47.958;11.366;2023-12-04T03:55:28;-4.70;99.90
17948;DHT22;9099;47.958;11.366;2023-12-04T03:57:56;-4.70;99.90
17948;DHT22;9099;47.958;11.366;2023-12-04T04:00:23;-4.70;99.90
17948;DHT22;9099;47.958;11.366;2023-12-04T04:02:50;-4.60;99.90
17948;DHT22;9099;47.958;11.366;2023-12-04T04:05:18;-4.50;99.90
17948;DHT22;9099;47.958;11.366;2023-12-04T04:07:45;-4.50;99.90
17948;DHT22;9099;47.958;11.366;2023-12-04T04:10:12;-4.50;99.90
17948;DHT22;9099;47.958;11.366;2023-12-04T04:12:39;-4.40;99.90
17948;DHT22;9099;47.958;11.366;2023-12-04T04:15:06;-4.40;99.90
17948;DHT22;9099;47.958;11.366;2023-12-04T04:17:33;-4.50;99.90
17948;DHT22;9099;47.958;11.366;2023-12-04T04:20:00;-4.50;99.90
17948;DHT22;9099;47.958;11.366;2023-12-04T04:22:29;-4.50;99.90
17948;DHT22;9099;47.958;11.366;2023-12-04T04:24:59;-4.50;99.90
17948;DHT22;9099;47.958;11.366;2023-12-04T04:27:27;-4.50;99.90
17948;DHT22;9099;47.958;11.366;2023-12-04T04:29:53;-4.50;99.90
17948;DHT22;9099;47.958;11.366;2023-12-04T04:32:20;-4.50;99.90
17948;DHT22;9099;47.958;11.366;2023-12-04T04:34:47;-4.60;99.90
17948;DHT22;9099;47.958;11.366;2023-12-04T04:37:14;-4.60;99.90
17948;DHT22;9099;47.958;11.366;2023-12-04T04:39:42;-4.60;99.90
17948;DHT22;9099;47.958;11.366;2023-12-04T04:42:09;-4.60;99.90
17948;DHT22;9099;47.958;11.366;2023-12-04T04:44:35;-4.70;99.90
17948;DHT22;9099;47.958;11.366;2023-12-04T04:47:02;-4.70;99.90
17948;DHT22;9099;47.958;11.366;2023-12-04T04:49:29;-4.70;99.90
17948;DHT22;9099;47.958;11.366;2023-12-04T04:51:56;-4.90;99.90
17948;DHT22;9099;47.958;11.366;2023-12-04T04:54:23;-5.20;99.90
17948;DHT22;9099;47.958;11.366;2023-12-04T04:56:51;-5.30;99.90
17948;DHT22;9099;47.958;11.366;2023-12-04T04:59:18;-5.40;99.90
17948;DHT22;9099;47.958;11.366;2023-12-04T05:01:45;-5.40;99.90
17948;DHT22;9099;47.958;11.366;2023-12-04T05:04:11;-5.40;99.90
17948;DHT22;9099;47.958;11.366;2023-12-04T05:06:38;-5.40;99.90
17948;DHT22;9099;47.958;11.366;2023-12-04T05:09:05;-5.40;99.90
17948;DHT22;9099;47.958;11.366;2023-12-04T05:11:32;-5.30;99.90
17948;DHT22;9099;47.958;11.366;2023-12-04T05:14:00;-5.20;99.90
17948;DHT22;9099;47.958;11.366;2023-12-04T05:16:27;-5.10;99.90
17948;DHT22;9099;47.958;11.366;2023-12-04T05:18:54;-5.00;99.90
17948;DHT22;9099;47.958;11.366;2023-12-04T05:21:21;-5.00;99.90
17948;DHT22;9099;47.958;11.366;2023-12-04T05:23:48;-5.00;99.90
17948;DHT22;9099;47.958;11.366;2023-12-04T05:26:14;-4.90;99.90
17948;DHT22;9099;47.958;11.366;2023-12-04T05:28:41;-4.80;99.90
17948;DHT22;9099;47.958;11.366;2023-12-04T05:31:09;-4.80;99.90
17948;DHT22;9099;47.958;11.366;2023-12-04T05:33:36;-4.70;99.90
17948;DHT22;9099;47.958;11.366;2023-12-04T05:36:04;-4.80;99.90
17948;DHT22;9099;47.958;11.366;2023-12-04T05:38:32;-4.70;99.90
17948;DHT22;9099;47.958;11.366;2023-12-04T05:40:59;-4.70;99.90
17948;DHT22;9099;47.958;11.366;2023-12-04T05:43:25;-4.70;99.90
17948;DHT22;9099;47.958;11.366;2023-12-04T05:45:52;-4.70;99.90
17948;DHT22;9099;47.958;11.366;2023-12-04T05:48:20;-4.70;99.90
17948;DHT22;9099;47.958;11.366;2023-12-04T05:50:47;-4.70;99.90
17948;DHT22;9099;47.958;11.366;2023-12-04T05:53:13;-4.70;99.90
17948;DHT22;9099;47.958;11.366;2023-12-04T05:55:40;-4.70;99.90
17948;DHT22;9099;47.958;11.366;2023-12-04T05:58:07;-4.70;99.90
17948;DHT22;9099;47.958;11.366;2023-12-04T06:00:34;-4.70;99.90
17948;DHT22;9099;47.958;11.366;2023-12-04T06:03:00;-4.80;99.90
17948;DHT22;9099;47.958;11.366;2023-12-04T06:05:29;-4.70;99.90
17948;DHT22;9099;47.958;11.366;2023-12-04T06:07:55;-4.80;99.90
17948;DHT22;9099;47.958;11.366;2023-12-04T06:10:23;-4.70;99.90
17948;DHT22;9099;47.958;11.366;2023-12-04T06:12:50;-4.70;99.90
17948;DHT22;9099;47.958;11.366;2023-12-04T06:15:17;-4.70;99.90
17948;DHT22;9099;47.958;11.366;2023-12-04T06:17:44;-4.60;99.90
17948;DHT22;9099;47.958;11.366;2023-12-04T06:20:11;-4.60;99.90
17948;DHT22;9099;47.958;11.366;2023-12-04T06:22:40;-4.60;99.90
17948;DHT22;9099;47.958;11.366;2023-12-04T06:25:08;-4.70;99.90
17948;DHT22;9099;47.958;11.366;2023-12-04T06:27:36;-4.70;99.90
17948;DHT22;9099;47.958;11.366;2023-12-04T06:30:05;-4.60;99.90
17948;DHT22;9099;47.958;11.366;2023-12-04T06:32:32;-4.60;99.90
17948;DHT22;9099;47.958;11.366;2023-12-04T06:35:00;-4.70;99.90
17948;DHT22;9099;47.958;11.366;2023-12-04T06:37:27;-4.90;99.90
17948;DHT22;9099;47.958;11.366;2023-12-04T06:39:59;-5.00;99.90
17948;DHT22;9099;47.958;11.366;2023-12-04T06:42:27;-5.10;99.90
17948;DHT22;9099;47.958;11.366;2023-12-04T06:44:55;-5.10;99.90
17948;DHT22;9099;47.958;11.366;2023-12-04T06:47:23;-5.10;99.90
17948;DHT22;9099;47.958;11.366;2023-12-04T06:49:50;-5.10;99.90
17948;DHT22;9099;47.958;11.366;2023-12-04T06:52:17;-5.00;99.90
17948;DHT22;9099;47.958;11.366;2023-12-04T06:54:44;-5.00;99.90
17948;DHT22;9099;47.958;11.366;2023-12-04T06:57:12;-4.90;99.90
17948;DHT22;9099;47.958;11.366;2023-12-04T06:59:40;-4.80;99.90
17948;DHT22;9099;47.958;11.366;2023-12-04T07:02:07;-4.80;99.90
17948;DHT22;9099;47.958;11.366;2023-12-04T07:04:34;-4.70;99.90
17948;DHT22;9099;47.958;11.366;2023-12-04T07:07:00;-4.70;99.90
17948;DHT22;9099;47.958;11.366;2023-12-04T07:09:30;-4.60;99.90
17948;DHT22;9099;47.958;11.366;2023-12-04T07:11:57;-4.60;99.90
17948;DHT22;9099;47.958;11.366;2023-12-04T07:14:26;-4.50;99.90
17948;DHT22;9099;47.958;11.366;2023-12-04T07:16:53;-4.50;99.90
17948;DHT22;9099;47.958;11.366;2023-12-04T07:19:19;-4.70;99.90
17948;DHT22;9099;47.958;11.366;2023-12-04T07:21:47;-5.10;99.90
17948;DHT22;9099;47.958;11.366;2023-12-04T07:24:14;-5.20;99.90
17948;DHT22;9099;47.958;11.366;2023-12-04T07:26:41;-5.20;99.90
17948;DHT22;9099;47.958;11.366;2023-12-04T07:29:07;-5.10;99.90
17948;DHT22;9099;47.958;11.366;2023-12-04T07:31:36;-5.20;99.90
17948;DHT22;9099;47.958;11.366;2023-12-04T07:34:03;-5.20;99.90
17948;DHT22;9099;47.958;11.366;2023-12-04T07:36:29;-5.10;99.90
17948;DHT22;9099;47.958;11.366;2023-12-04T07:38:56;-5.00;99.90
17948;DHT22;9099;47.958;11.366;2023-12-04T07:41:23;-5.00;99.90
17948;DHT22;9099;47.958;11.366;2023-12-04T07:43:50;-4.80;99.90
17948;DHT22;9099;47.958;11.366;2023-12-04T07:46:17;-4.70;99.90
17948;DHT22;9099;47.958;11.366;2023-12-04T07:48:45;-4.50;99.90
17948;DHT22;9099;47.958;11.366;2023-12-04T07:51:11;-4.40;99.90
17948;DHT22;9099;47.958;11.366;2023-12-04T07:53:38;-4.20;99.90
17948;DHT22;9099;47.958;11.366;2023-12-04T07:56:06;-4.10;99.90
17948;DHT22;9099;47.958;11.366;2023-12-04T07:58:33;-3.90;99.90
17948;DHT22;9099;47.958;11.366;2023-12-04T08:01:00;-3.80;99.90
17948;DHT22;9099;47.958;11.366;2023-12-04T08:03:27;-3.60;99.90
17948;DHT22;9099;47.958;11.366;2023-12-04T08:05:55;-3.50;99.90
17948;DHT22;9099;47.958;11.366;2023-12-04T08:08:23;-3.40;99.90
17948;DHT22;9099;47.958;11.366;2023-12-04T08:10:50;-3.60;99.90
17948;DHT22;9099;47.958;11.366;2023-12-04T08:13:17;-3.80;99.90
17948;DHT22;9099;47.958;11.366;2023-12-04T08:15:44;-3.90;99.90
17948;DHT22;9099;47.958;11.366;2023-12-04T08:18:11;-3.80;99.90
17948;DHT22;9099;47.958;11.366;2023-12-04T08:20:38;-3.80;99.90
17948;DHT22;9099;47.958;11.366;2023-12-04T08:23:06;-3.80;99.90
17948;DHT22;9099;47.958;11.366;2023-12-04T08:25:33;-3.70;99.90
17948;DHT22;9099;47.958;11.366;2023-12-04T08:28:01;-3.60;99.90
17948;DHT22;9099;47.958;11.366;2023-12-04T08:30:28;-3.60;99.90
17948;DHT22;9099;47.958;11.366;2023-12-04T08:32:55;-3.60;99.90
17948;DHT22;9099;47.958;11.366;2023-12-04T08:35:22;-3.60;99.90
17948;DHT22;9099;47.958;11.366;2023-12-04T08:37:49;-3.60;99.90
17948;DHT22;9099;47.958;11.366;2023-12-04T08:40:18;-3.50;99.90
17948;DHT22;9099;47.958;11.366;2023-12-04T08:42:44;-3.50;99.90
17948;DHT22;9099;47.958;11.366;2023-12-04T08:45:11;-3.60;99.90
17948;DHT22;9099;47.958;11.366;2023-12-04T08:47:38;-3.50;99.90
17948;DHT22;9099;47.958;11.366;2023-12-04T08:50:06;-3.40;99.90
17948;DHT22;9099;47.958;11.366;2023-12-04T08:52:33;-3.20;99.90
17948;DHT22;9099;47.958;11.366;2023-12-04T08:55:00;-3.00;99.90
17948;DHT22;9099;47.958;11.366;2023-12-04T08:57:28;-2.70;99.90
17948;DHT22;9099;47.958;11.366;2023-12-04T08:59:55;-2.40;99.90
17948;DHT22;9099;47.958;11.366;2023-12-04T09:02:22;-2.00;99.90
17948;DHT22;9099;47.958;11.366;2023-12-04T09:04:49;-1.70;99.90
17948;DHT22;9099;47.958;11.366;2023-12-04T09:07:16;-1.50;99.90
17948;DHT22;9099;47.958;11.366;2023-12-04T09:09:43;-1.50;99.90
17948;DHT22;9099;47.958;11.366;2023-12-04T09:12:10;-1.50;99.90
17948;DHT22;9099;47.958;11.366;2023-12-04T09:14:38;-1.50;99.90
17948;DHT22;9099;47.958;11.366;2023-12-04T09:17:05;-1.70;99.90
17948;DHT22;9099;47.958;11.366;2023-12-04T09:19:32;-1.80;99.90
17948;DHT22;9099;47.958;11.366;2023-12-04T09:21:59;-2.00;99.90
17948;DHT22;9099;47.958;11.366;2023-12-04T09:24:26;-1.90;99.90
17948;DHT22;9099;47.958;11.366;2023-12-04T09:26:54;-1.70;99.90
17948;DHT22;9099;47.958;11.366;2023-12-04T09:32:45;-1.70;99.90
17948;DHT22;9099;47.958;11.366;2023-12-04T09:35:12;-1.70;99.90
17948;DHT22;9099;47.958;11.366;2023-12-04T09:37:39;-1.70;99.90
17948;DHT22;9099;47.958;11.366;2023-12-04T09:40:06;-1.60;99.90
17948;DHT22;9099;47.958;11.366;2023-12-04T09:42:34;-1.50;99.90
17948;DHT22;9099;47.958;11.366;2023-12-04T09:45:01;-1.50;99.90
17948;DHT22;9099;47.958;11.366;2023-12-04T09:47:30;-1.40;99.90
17948;DHT22;9099;47.958;11.366;2023-12-04T09:50:03;-1.50;99.90
17948;DHT22;9099;47.958;11.366;2023-12-04T09:52:31;-1.60;99.90
17948;DHT22;9099;47.958;11.366;2023-12-04T09:55:00;-1.70;99.90
17948;DHT22;9099;47.958;11.366;2023-12-04T09:57:28;-1.60;99.90
17948;DHT22;9099;47.958;11.366;2023-12-04T09:59:56;-1.40;99.90
17948;DHT22;9099;47.958;11.366;2023-12-04T10:02:24;-1.10;99.90
17948;DHT22;9099;47.958;11.366;2023-12-04T10:04:51;-0.90;99.90
17948;DHT22;9099;47.958;11.366;2023-12-04T10:07:20;-1.00;99.90
17948;DHT22;9099;47.958;11.366;2023-12-04T10:09:46;-1.20;99.90
17948;DHT22;9099;47.958;11.366;2023-12-04T10:12:13;-1.40;99.90
17948;DHT22;9099;47.958;11.366;2023-12-04T10:15:03;-1.30;99.90
17948;DHT22;9099;47.958;11.366;2023-12-04T10:17:33;-0.90;99.90
17948;DHT22;9099;47.958;11.366;2023-12-04T10:20:04;-0.70;99.90
17948;DHT22;9099;47.958;11.366;2023-12-04T10:22:51;-0.60;99.90
17948;DHT22;9099;47.958;11.366;2023-12-04T10:25:19;-0.40;99.90
17948;DHT22;9099;47.958;11.366;2023-12-04T10:27:45;-0.40;99.90
17948;DHT22;9099;47.958;11.366;2023-12-04T10:30:22;-0.40;99.90
17948;DHT22;9099;47.958;11.366;2023-12-04T10:32:54;-0.10;99.90
17948;DHT22;9099;47.958;11.366;2023-12-04T10:35:21;0.20;99.90
17948;DHT22;9099;47.958;11.366;2023-12-04T10:37:53;0.50;99.90
17948;DHT22;9099;47.958;11.366;2023-12-04T10:40:24;0.50;99.90
17948;DHT22;9099;47.958;11.366;2023-12-04T10:42:57;0.30;99.90
17948;DHT22;9099;47.958;11.366;2023-12-04T10:45:37;0.10;99.90
17948;DHT22;9099;47.958;11.366;2023-12-04T10:48:04;0.00;99.90
17948;DHT22;9099;47.958;11.366;2023-12-04T10:50:32;-0.20;99.90
17948;DHT22;9099;47.958;11.366;2023-12-04T10:53:01;-0.30;99.90
17948;DHT22;9099;47.958;11.366;2023-12-04T10:55:29;-0.40;99.90
17948;DHT22;9099;47.958;11.366;2023-12-04T10:57:57;-0.50;99.90
17948;DHT22;9099;47.958;11.366;2023-12-04T11:00:24;-0.60;99.90
17948;DHT22;9099;47.958;11.366;2023-12-04T11:02:52;-0.60;99.90
17948;DHT22;9099;47.958;11.366;2023-12-04T11:05:23;-0.50;99.90
17948;DHT22;9099;47.958;11.366;2023-12-04T11:07:53;-0.50;99.90
17948;DHT22;9099;47.958;11.366;2023-12-04T11:10:23;-0.40;99.90
17948;DHT22;9099;47.958;11.366;2023-12-04T11:12:56;-0.50;99.90
17948;DHT22;9099;47.958;11.366;2023-12-04T11:15:24;-0.40;99.90
17948;DHT22;9099;47.958;11.366;2023-12-04T11:17:56;-0.50;99.90
17948;DHT22;9099;47.958;11.366;2023-12-04T11:20:24;-0.60;99.90
17948;DHT22;9099;47.958;11.366;2023-12-04T11:22:53;-0.60;99.90
17948;DHT22;9099;47.958;11.366;2023-12-04T11:25:23;-0.60;99.90
17948;DHT22;9099;47.958;11.366;2023-12-04T11:27:51;-0.60;99.90
17948;DHT22;9099;47.958;11.366;2023-12-04T11:30:19;-0.60;99.90
17948;DHT22;9099;47.958;11.366;2023-12-04T11:32:46;-0.40;99.90
17948;DHT22;9099;47.958;11.366;2023-12-04T11:35:15;-0.30;99.90
17948;DHT22;9099;47.958;11.366;2023-12-04T11:37:43;-0.30;99.90
17948;DHT22;9099;47.958;11.366;2023-12-04T11:40:12;-0.20;99.90
17948;DHT22;9099;47.958;11.366;2023-12-04T11:42:40;-0.10;99.90
17948;DHT22;9099;47.958;11.366;2023-12-04T11:45:08;0.10;99.90
17948;DHT22;9099;47.958;11.366;2023-12-04T11:47:52;0.30;99.90
17948;DHT22;9099;47.958;11.366;2023-12-04T11:50:21;0.30;99.90
17948;DHT22;9099;47.958;11.366;2023-12-04T11:52:48;0.30;99.90
17948;DHT22;9099;47.958;11.366;2023-12-04T11:55:20;0.20;99.90
17948;DHT22;9099;47.958;11.366;2023-12-04T11:57:49;0.20;99.90
17948;DHT22;9099;47.958;11.366;2023-12-04T12:00:21;0.10;99.90
17948;DHT22;9099;47.958;11.366;2023-12-04T12:03:02;0.30;99.90
17948;DHT22;9099;47.958;11.366;2023-12-04T12:05:32;0.40;99.90
17948;DHT22;9099;47.958;11.366;2023-12-04T12:08:01;0.50;99.90
17948;DHT22;9099;47.958;11.366;2023-12-04T12:10:28;0.60;99.90
17948;DHT22;9099;47.958;11.366;2023-12-04T12:12:57;0.70;99.90
17948;DHT22;9099;47.958;11.366;2023-12-04T12:15:24;0.60;99.90
17948;DHT22;9099;47.958;11.366;2023-12-04T12:17:51;0.40;99.90
17948;DHT22;9099;47.958;11.366;2023-12-04T12:20:18;0.40;99.90
17948;DHT22;9099;47.958;11.366;2023-12-04T12:22:48;0.50;99.90
17948;DHT22;9099;47.958;11.366;2023-12-04T12:25:15;0.50;99.90
17948;DHT22;9099;47.958;11.366;2023-12-04T12:27:42;0.40;99.90
17948;DHT22;9099;47.958;11.366;2023-12-04T12:30:11;0.40;99.90
17948;DHT22;9099;47.958;11.366;2023-12-04T12:32:37;0.50;99.90
17948;DHT22;9099;47.958;11.366;2023-12-04T12:35:05;0.40;99.90
17948;DHT22;9099;47.958;11.366;2023-12-04T12:37:33;0.60;99.90
17948;DHT22;9099;47.958;11.366;2023-12-04T12:40:01;0.70;99.90
17948;DHT22;9099;47.958;11.366;2023-12-04T12:42:30;0.80;99.90
17948;DHT22;9099;47.958;11.366;2023-12-04T12:45:01;1.10;99.90
17948;DHT22;9099;47.958;11.366;2023-12-04T12:47:30;1.30;99.90
17948;DHT22;9099;47.958;11.366;2023-12-04T12:49:57;1.50;99.90
17948;DHT22;9099;47.958;11.366;2023-12-04T12:52:26;1.60;99.90
17948;DHT22;9099;47.958;11.366;2023-12-04T12:54:52;1.60;99.90
17948;DHT22;9099;47.958;11.366;2023-12-04T12:57:19;1.50;99.90
17948;DHT22;9099;47.958;11.366;2023-12-04T12:59:46;1.40;99.90
17948;DHT22;9099;47.958;11.366;2023-12-04T13:02:14;1.40;99.90
17948;DHT22;9099;47.958;11.366;2023-12-04T13:04:45;1.30;99.90
17948;DHT22;9099;47.958;11.366;2023-12-04T13:07:11;1.20;99.90
17948;DHT22;9099;47.958;11.366;2023-12-04T13:09:39;1.10;99.90
17948;DHT22;9099;47.958;11.366;2023-12-04T13:12:07;1.10;99.90
17948;DHT22;9099;47.958;11.366;2023-12-04T13:14:35;1.00;99.90
17948;DHT22;9099;47.958;11.366;2023-12-04T13:17:03;1.00;99.90
17948;DHT22;9099;47.958;11.366;2023-12-04T13:19:32;1.00;99.90
17948;DHT22;9099;47.958;11.366;2023-12-04T13:22:01;0.90;99.90
17948;DHT22;9099;47.958;11.366;2023-12-04T13:24:29;1.00;99.90
17948;DHT22;9099;47.958;11.366;2023-12-04T13:26:56;1.10;99.90
17948;DHT22;9099;47.958;11.366;2023-12-04T13:29:23;1.00;99.90
17948;DHT22;9099;47.958;11.366;2023-12-04T13:31:50;1.00;99.90
17948;DHT22;9099;47.958;11.366;2023-12-04T13:34:17;0.80;99.90
17948;DHT22;9099;47.958;11.366;2023-12-04T13:36:44;0.80;99.90
17948;DHT22;9099;47.958;11.366;2023-12-04T13:39:12;0.90;99.90
17948;DHT22;9099;47.958;11.366;2023-12-04T13:44:28;0.90;99.90
17948;DHT22;9099;47.958;11.366;2023-12-04T13:46:55;1.00;99.90
17948;DHT22;9099;47.958;11.366;2023-12-04T13:49:22;1.10;99.90
17948;DHT22;9099;47.958;11.366;2023-12-04T13:51:48;1.10;99.90
17948;DHT22;9099;47.958;11.366;2023-12-04T13:54:17;1.20;99.90
17948;DHT22;9099;47.958;11.366;2023-12-04T13:56:47;1.30;99.90
17948;DHT22;9099;47.958;11.366;2023-12-04T13:59:19;1.20;99.90
17948;DHT22;9099;47.958;11.366;2023-12-04T14:01:47;1.20;99.90
17948;DHT22;9099;47.958;11.366;2023-12-04T14:04:17;1.10;99.90
17948;DHT22;9099;47.958;11.366;2023-12-04T14:06:44;1.00;99.90
17948;DHT22;9099;47.958;11.366;2023-12-04T14:09:11;0.80;99.90
17948;DHT22;9099;47.958;11.366;2023-12-04T14:11:42;0.80;99.90
17948;DHT22;9099;47.958;11.366;2023-12-04T14:14:10;0.90;99.90
17948;DHT22;9099;47.958;11.366;2023-12-04T14:16:38;0.90;99.90
17948;DHT22;9099;47.958;11.366;2023-12-04T14:19:05;0.90;99.90
17948;DHT22;9099;47.958;11.366;2023-12-04T14:21:32;1.00;99.90
17948;DHT22;9099;47.958;11.366;2023-12-04T14:23:59;1.00;99.90
17948;DHT22;9099;47.958;11.366;2023-12-04T14:26:26;1.00;99.90
17948;DHT22;9099;47.958;11.366;2023-12-04T14:28:55;1.00;99.90
17948;DHT22;9099;47.958;11.366;2023-12-04T14:31:23;0.90;99.90
17948;DHT22;9099;47.958;11.366;2023-12-04T14:33:50;0.90;99.90
17948;DHT22;9099;47.958;11.366;2023-12-04T14:36:18;0.80;99.90
17948;DHT22;9099;47.958;11.366;2023-12-04T14:38:45;0.60;99.90
17948;DHT22;9099;47.958;11.366;2023-12-04T14:41:12;0.40;99.90
17948;DHT22;9099;47.958;11.366;2023-12-04T14:43:38;0.40;99.90
17948;DHT22;9099;47.958;11.366;2023-12-04T14:46:07;0.50;99.90
17948;DHT22;9099;47.958;11.366;2023-12-04T14:48:37;0.40;99.90
17948;DHT22;9099;47.958;11.366;2023-12-04T14:51:04;0.40;99.90
17948;DHT22;9099;47.958;11.366;2023-12-04T14:53:31;0.30;99.90
17948;DHT22;9099;47.958;11.366;2023-12-04T14:56:09;0.30;99.90
17948;DHT22;9099;47.958;11.366;2023-12-04T14:58:53;0.20;99.90
17948;DHT22;9099;47.958;11.366;2023-12-04T15:01:39;0.10;99.90
17948;DHT22;9099;47.958;11.366;2023-12-04T15:04:23;0.10;99.90
17948;DHT22;9099;47.958;11.366;2023-12-04T15:07:04;0.10;99.90
17948;DHT22;9099;47.958;11.366;2023-12-04T15:10:02;0.00;99.90
17948;DHT22;9099;47.958;11.366;2023-12-04T15:12:45;-0.10;99.90
17948;DHT22;9099;47.958;11.366;2023-12-04T15:15:32;-0.30;99.90
17948;DHT22;9099;47.958;11.366;2023-12-04T15:18:12;-0.30;99.90
17948;DHT22;9099;47.958;11.366;2023-12-04T15:20:59;-0.30;99.90
17948;DHT22;9099;47.958;11.366;2023-12-04T15:23:26;-0.20;99.90
17948;DHT22;9099;47.958;11.366;2023-12-04T15:25:52;-0.20;99.90
17948;DHT22;9099;47.958;11.366;2023-12-04T15:28:19;-0.30;99.90
17948;DHT22;9099;47.958;11.366;2023-12-04T15:30:45;-0.40;99.90
17948;DHT22;9099;47.958;11.366;2023-12-04T15:33:13;-0.50;99.90
17948;DHT22;9099;47.958;11.366;2023-12-04T15:35:39;-0.50;99.90
17948;DHT22;9099;47.958;11.366;2023-12-04T15:38:07;-0.50;99.90
17948;DHT22;9099;47.958;11.366;2023-12-04T15:40:33;-0.40;99.90
17948;DHT22;9099;47.958;11.366;2023-12-04T15:43:00;-0.40;99.90
17948;DHT22;9099;47.958;11.366;2023-12-04T15:45:27;-0.40;99.90
17948;DHT22;9099;47.958;11.366;2023-12-04T15:47:54;-0.30;99.90